Time;durP1;ratioP1;P1;durP2;ratioP2;P2;SDS_P1;SDS_P2;PMS_P1;PMS_P2;Temp;Humidity;BMP_temperature;BMP_pressure;BME280_temperature;BME280_humidity;BME280_pressure;Samples;Min_cycle;Max_cycle;Signal;HPM_P1;HPM_P2
2022/12/19 00:03:36;;;;;;;;;;;;;;;1.42;73.47;102250.91;20798696;28;19929;-73
2022/12/19 00:13:58;;;;;;;;;;;;;;;1.46;74.10;102232.34;20801069;28;19929;-73
2022/12/19 00:24:19;;;;;;;;;;;;;;;1.47;76.00;102237.50;20795429;28;19933;-73
2022/12/19 00:34:42;;;;;;;;;;;;;;;1.47;77.03;102231.50;20798480;28;20099;-73
2022/12/19 00:45:03;;;;;;;;;;;;;;;1.49;78.55;102199.28;20754840;28;20404;-73
2022/12/19 00:55:25;;;;;;;;;;;;;;;1.50;78.95;102168.72;20777905;28;20280;-72
2022/12/19 01:05:46;;;;;;;;;;;;;;;1.51;79.81;102167.91;20773858;28;20450;-73
2022/12/19 01:16:09;;;;;;;;;;;;;;;1.52;81.52;102135.63;20802395;28;19993;-73
2022/12/19 01:26:31;;;;;;;;;;;;;;;1.52;81.32;102123.72;20739097;22;19925;-71
2022/12/19 01:36:52;;;;;;;;;;;;;;;1.56;82.60;102114.47;20719454;28;19925;-71
2022/12/19 01:47:14;;;;;;;;;;;;;;;1.60;83.16;102106.09;20730191;28;19937;-70
2022/12/19 01:57:36;;;;;;;;;;;;;;;1.65;83.39;102090.09;20724418;28;19973;-69
2022/12/19 02:07:59;;;;;;;;;;;;;;;1.67;83.65;102077.38;20726869;28;20388;-69
2022/12/19 02:18:23;;;;;;;;;;;;;;;1.69;83.03;102053.63;20723761;28;20161;-68
2022/12/19 02:29:00;;;;;;;;;;;;;;;1.74;83.87;102038.47;20722205;28;19925;-70
2022/12/19 02:39:28;;;;;;;;;;;;;;;1.79;84.19;102052.19;20728208;28;20337;-69
2022/12/19 02:49:53;;;;;;;;;;;;;;;1.86;84.27;102031.09;20736477;28;19933;-68
2022/12/19 03:00:22;;;;;;;;;;;;;;;1.98;84.02;101993.09;20709166;28;19956;-68
2022/12/19 03:10:47;;;;;;;;;;;;;;;2.05;84.00;102002.66;20726611;28;19929;-69
2022/12/19 03:21:27;;;;;;;;;;;;;;;2.20;83.43;101974.91;20724844;28;19992;-64
2022/12/19 03:31:50;;;;;;;;;;;;;;;2.26;83.54;101962.28;20721175;28;19984;-68
2022/12/19 03:53:06;;;;;;;;;;;;;;;2.43;83.85;101937.97;20721470;28;20198;-67
2022/12/19 04:03:29;;;;;;;;;;;;;;;2.56;84.56;101927.19;20720629;28;19926;-68
2022/12/19 04:13:54;;;;;;;;;;;;;;;2.59;85.91;101929.78;20714897;28;20268;-67
2022/12/19 04:24:22;;;;;;;;;;;;;;;2.64;86.10;101910.31;20717871;28;19994;-67
2022/12/19 04:34:44;;;;;;;;;;;;;;;2.72;87.56;101898.53;20716630;28;19992;-67
2022/12/19 04:45:05;;;;;;;;;;;;;;;2.70;88.23;101872.09;20711373;28;19991;-68
2022/12/19 04:55:27;;;;;;;;;;;;;;;2.77;87.95;101853.50;20732144;28;19925;-69
2022/12/19 05:05:49;;;;;;;;;;;;;;;2.83;87.71;101827.19;20731684;28;19930;-69
2022/12/19 05:16:11;;;;;;;;;;;;;;;2.85;88.14;101825.53;20709285;28;19933;-69
2022/12/19 05:26:32;;;;;;;;;;;;;;;2.89;88.45;101802.59;20727829;28;19925;-68
2022/12/19 05:36:54;;;;;;;;;;;;;;;2.94;88.80;101800.13;20728900;28;20344;-69
2022/12/19 05:47:15;;;;;;;;;;;;;;;2.97;88.95;101790.81;20728017;28;19971;-70
2022/12/19 05:57:36;;;;;;;;;;;;;;;3.04;89.54;101771.31;20718064;28;19926;-70
2022/12/19 06:07:58;;;;;;;;;;;;;;;3.12;89.96;101758.66;20719193;28;19926;-70
2022/12/19 06:18:20;;;;;;;;;;;;;;;3.23;90.38;101759.66;20722926;28;19957;-71
2022/12/19 06:28:42;;;;;;;;;;;;;;;3.25;90.77;101745.22;20726583;28;19930;-69
2022/12/19 06:39:03;;;;;;;;;;;;;;;3.33;90.87;101748.75;20720572;28;19934;-70
2022/12/19 06:49:25;;;;;;;;;;;;;;;3.38;91.39;101734.31;20696468;28;20281;-70
2022/12/19 06:59:46;;;;;;;;;;;;;;;3.43;92.46;101741.22;20721311;28;19925;-71
2022/12/19 07:10:08;;;;;;;;;;;;;;;3.51;92.25;101737.06;20717828;28;19929;-71
2022/12/19 07:20:30;;;;;;;;;;;;;;;3.57;92.10;101737.13;20724880;28;20377;-71
2022/12/19 07:30:51;;;;;;;;;;;;;;;3.68;92.12;101724.50;20709436;28;19926;-71
2022/12/19 07:41:13;;;;;;;;;;;;;;;3.74;93.64;101719.44;20719593;28;19930;-72
2022/12/19 07:51:34;;;;;;;;;;;;;;;3.81;93.98;101724.63;20702993;28;19991;-71
2022/12/19 08:01:56;;;;;;;;;;;;;;;3.93;94.60;101716.25;20711292;28;20451;-72
2022/12/19 08:12:17;;;;;;;;;;;;;;;4.04;95.13;101730.03;20712737;28;19926;-71
2022/12/19 08:22:39;;;;;;;;;;;;;;;4.15;95.55;101732.69;20722690;28;19983;-71
2022/12/19 08:33:00;;;;;;;;;;;;;;;4.20;96.10;101713.97;20731218;22;19926;-66
2022/12/19 08:43:22;;;;;;;;;;;;;;;4.30;96.74;101708.13;20675073;28;19989;-65
2022/12/19 08:53:45;;;;;;;;;;;;;;;4.43;97.07;101712.47;20651703;28;19976;-66
2022/12/19 09:04:06;;;;;;;;;;;;;;;4.54;97.13;101704.91;20648233;28;19926;-65
2022/12/19 09:14:47;;;;;;;;;;;;;;;4.69;98.20;101690.50;20652389;28;19969;-65
2022/12/19 09:25:09;;;;;;;;;;;;;;;4.82;98.36;101697.44;20707049;28;20420;-64
2022/12/19 09:35:31;;;;;;;;;;;;;;;4.95;98.34;101691.56;20631703;28;19926;-65
2022/12/19 09:46:02;;;;;;;;;;;;;;;5.21;99.72;101690.84;20694636;28;20064;-64
2022/12/19 09:56:29;;;;;;;;;;;;;;;5.32;99.68;101676.38;20624018;28;19930;-65
2022/12/19 10:06:54;;;;;;;;;;;;;;;5.59;99.76;101679.06;20616423;28;20061;-65
2022/12/19 10:17:35;;;;;;;;;;;;;;;5.72;99.39;101675.69;20618101;28;20592;-65
2022/12/19 10:28:03;;;;;;;;;;;;;;;5.81;98.65;101670.56;20615121;28;19929;-65
2022/12/19 10:38:30;;;;;;;;;;;;;;;5.85;99.78;101668.06;20637812;28;19930;-64
2022/12/19 10:48:52;;;;;;;;;;;;;;;6.02;99.62;101661.25;20613765;28;19992;-65
2022/12/19 10:59:18;;;;;;;;;;;;;;;6.16;100.00;101658.69;20603229;28;19972;-65
2022/12/19 11:09:41;;;;;;;;;;;;;;;6.23;100.00;101649.31;20633352;28;19937;-65
2022/12/19 11:20:21;;;;;;;;;;;;;;;6.39;99.87;101640.75;20619817;28;19949;-65
2022/12/19 11:31:03;;;;;;;;;;;;;;;6.61;99.16;101622.72;20624734;28;19932;-65
2022/12/19 11:41:47;;;;;;;;;;;;;;;6.72;98.33;101636.41;20617738;28;19992;-65
2022/12/19 11:52:08;;;;;;;;;;;;;;;6.97;98.65;101622.66;20610695;28;19926;-65
2022/12/19 12:03:13;;;;;;;;;;;;;;;7.08;98.51;101617.47;20620032;28;19925;-66
2022/12/19 12:13:34;;;;;;;;;;;;;;;7.20;98.64;101609.72;20623231;28;20004;-66
2022/12/19 12:24:40;;;;;;;;;;;;;;;7.24;98.49;101598.53;20630042;28;19948;-65
2022/12/19 12:35:21;;;;;;;;;;;;;;;7.39;98.83;101601.06;20617642;28;20013;-66
2022/12/19 12:46:04;;;;;;;;;;;;;;;7.54;98.83;101582.09;20671242;28;20496;-64
2022/12/19 12:56:25;;;;;;;;;;;;;;;7.63;97.86;101582.06;20618786;28;19949;-65
2022/12/19 13:06:50;;;;;;;;;;;;;;;7.66;98.15;101579.44;20591468;28;19933;-65
2022/12/19 13:17:16;;;;;;;;;;;;;;;7.75;97.90;101585.41;20622024;28;20305;-65
2022/12/19 13:27:38;;;;;;;;;;;;;;;7.75;98.15;101585.41;20617634;28;19934;-65
2022/12/19 13:37:59;;;;;;;;;;;;;;;7.79;98.59;101581.94;20632816;28;19934;-65
2022/12/19 13:48:46;;;;;;;;;;;;;;;7.97;98.12;101576.66;20633673;28;19945;-65
2022/12/19 13:59:08;;;;;;;;;;;;;;;7.98;97.92;101567.22;20640540;28;19989;-65
2022/12/19 14:09:34;;;;;;;;;;;;;;;8.20;96.31;101570.47;20632237;28;19926;-65
2022/12/19 14:20:21;;;;;;;;;;;;;;;8.12;97.07;101555.06;20623015;28;20468;-66
2022/12/19 14:31:04;;;;;;;;;;;;;;;8.14;97.53;101548.19;20662072;22;19929;-76
2022/12/19 14:43:37;;;;;;;;;;;;;;;8.21;97.35;101549.84;20710737;28;19926;-77
2022/12/19 14:52:40;;;;;;;;;;;;;;;8.23;97.43;101531.75;20700856;28;19937;-76
2022/12/19 15:03:27;;;;;;;;;;;;;;;8.34;96.57;101536.00;20685898;28;20055;-76
2022/12/19 15:13:55;;;;;;;;;;;;;;;8.29;96.97;101526.59;20718396;28;19925;-75
2022/12/19 15:24:37;;;;;;;;;;;;;;;8.31;96.73;101515.41;20702696;28;20333;-76
2022/12/19 15:34:58;;;;;;;;;;;;;;;8.28;96.72;101514.59;20686869;28;19930;-75
2022/12/19 15:45:20;;;;;;;;;;;;;;;8.26;97.15;101499.09;20688415;28;19925;-76
2022/12/19 15:55:42;;;;;;;;;;;;;;;8.35;96.49;101500.75;20678916;28;20012;-76
2022/12/19 16:06:09;;;;;;;;;;;;;;;8.47;95.57;101495.47;20677020;28;19934;-76
2022/12/19 16:16:30;;;;;;;;;;;;;;;8.45;96.12;101498.06;20696245;28;19930;-76
2022/12/19 16:26:54;;;;;;;;;;;;;;;8.47;94.85;101478.28;20697232;28;19968;-78
2022/12/19 16:37:15;;;;;;;;;;;;;;;8.42;95.46;101503.28;20688331;28;19925;-77
2022/12/19 16:47:37;;;;;;;;;;;;;;;8.43;94.75;101510.13;20719601;28;19938;-76
2022/12/19 16:57:59;;;;;;;;;;;;;;;8.39;94.18;101518.75;20710610;28;19972;-76
2022/12/19 17:08:21;;;;;;;;;;;;;;;8.37;94.13;101505.00;20706100;28;19930;-76
2022/12/19 17:18:43;;;;;;;;;;;;;;;8.37;93.16;101497.28;20723004;28;19972;-76
2022/12/19 17:29:05;;;;;;;;;;;;;;;8.36;92.44;101476.66;20709134;28;20396;-76
2022/12/19 17:39:28;;;;;;;;;;;;;;;8.40;91.40;101471.47;20708519;28;19996;-77
2022/12/19 17:49:49;;;;;;;;;;;;;;;8.46;90.12;101484.28;20701845;28;20459;-76
2022/12/19 18:00:11;;;;;;;;;;;;;;;8.47;90.12;101504.06;20719940;28;20450;-77
2022/12/19 18:10:33;;;;;;;;;;;;;;;8.47;89.54;101496.31;20695803;28;19926;-77
2022/12/19 18:20:54;;;;;;;;;;;;;;;8.52;89.04;101494.53;20706799;28;19972;-77
2022/12/19 18:31:24;;;;;;;;;;;;;;;8.41;89.93;101488.66;20700196;28;19929;-77
2022/12/19 18:41:45;;;;;;;;;;;;;;;8.44;89.47;101506.66;20690471;28;19925;-78
2022/12/19 18:52:09;;;;;;;;;;;;;;;8.48;89.16;101492.88;20697164;28;19934;-77
2022/12/19 19:02:31;;;;;;;;;;;;;;;8.49;88.63;101509.19;20693492;28;20009;-77
2022/12/19 19:12:55;;;;;;;;;;;;;;;8.45;88.59;101500.66;20704466;28;19926;-76
2022/12/19 19:23:16;;;;;;;;;;;;;;;8.49;88.31;101511.78;20704375;28;19933;-77
2022/12/19 19:33:39;;;;;;;;;;;;;;;8.49;87.90;101499.75;20682190;28;20366;-77
2022/12/19 19:44:01;;;;;;;;;;;;;;;8.59;87.78;101503.91;20692634;28;20425;-76
2022/12/19 19:54:22;;;;;;;;;;;;;;;8.60;86.91;101508.22;20690992;28;19930;-76
2022/12/19 20:04:44;;;;;;;;;;;;;;;8.58;86.53;101509.97;20705311;28;19929;-75
2022/12/19 20:15:07;;;;;;;;;;;;;;;8.63;86.30;101505.59;20691282;28;19925;-75
2022/12/19 20:25:29;;;;;;;;;;;;;;;8.53;86.07;101506.59;20695362;28;19933;-76
2022/12/19 20:35:54;;;;;;;;;;;;;;;8.64;85.99;101530.53;20694586;28;20345;-76
2022/12/19 20:46:17;;;;;;;;;;;;;;;8.63;85.85;101512.47;20668581;28;19925;-75
2022/12/19 20:56:39;;;;;;;;;;;;;;;8.59;86.57;101532.28;20665368;23;20381;-67
2022/12/19 21:07:00;;;;;;;;;;;;;;;8.76;84.97;101519.22;20628980;28;20156;-67
2022/12/19 21:17:22;;;;;;;;;;;;;;;8.79;85.24;101529.50;20626946;28;19930;-70
2022/12/19 21:27:45;;;;;;;;;;;;;;;8.83;85.36;101523.41;20645580;28;19980;-67
2022/12/19 21:38:06;;;;;;;;;;;;;;;8.85;85.19;101534.59;20670233;28;19925;-68
2022/12/19 21:48:28;;;;;;;;;;;;;;;8.83;84.84;101534.59;20650109;28;19930;-68
2022/12/19 21:58:54;;;;;;;;;;;;;;;8.85;85.32;101544.91;20651602;28;19929;-68
2022/12/19 22:09:17;;;;;;;;;;;;;;;8.93;85.26;101530.19;20667010;28;20301;-68
2022/12/19 22:19:39;;;;;;;;;;;;;;;8.86;85.36;101508.75;20658228;28;20652;-68
2022/12/19 22:30:00;;;;;;;;;;;;;;;8.95;85.03;101507.81;20651083;28;19925;-68
2022/12/19 22:40:31;;;;;;;;;;;;;;;8.97;85.45;101500.91;20633995;28;20676;-68
2022/12/19 22:50:55;;;;;;;;;;;;;;;8.97;85.40;101494.00;20664425;28;19930;-69
2022/12/19 23:01:18;;;;;;;;;;;;;;;9.21;84.90;101486.81;20646843;28;19929;-68
2022/12/19 23:11:40;;;;;;;;;;;;;;;9.20;85.27;101495.41;20648384;28;20296;-68
2022/12/19 23:22:02;;;;;;;;;;;;;;;9.22;85.23;101489.38;20641941;28;19926;-68
2022/12/19 23:32:23;;;;;;;;;;;;;;;9.17;85.49;101479.97;20637296;28;20053;-68
2022/12/19 23:42:45;;;;;;;;;;;;;;;9.13;85.61;101474.00;20647926;28;19936;-69
2022/12/19 23:53:06;;;;;;;;;;;;;;;9.17;85.63;101469.66;20656252;28;20384;-68
